createdAt,value
2022-12-12T00:00:53.447Z,0.05
2022-12-12T00:03:23.173Z,0.05
2022-12-12T00:05:54.322Z,-0.01
2022-12-12T00:08:22.618Z,-0.07
2022-12-12T00:10:50.917Z,-0.15
2022-12-12T00:13:19.243Z,-0.11
2022-12-12T00:15:48.424Z,-0.10
2022-12-12T00:18:16.877Z,-0.04
2022-12-12T00:20:46.670Z,0.03
2022-12-12T00:23:14.955Z,0.15
2022-12-12T00:25:43.249Z,0.19
2022-12-12T00:28:11.499Z,0.20
2022-12-12T00:30:39.997Z,0.28
2022-12-12T00:33:08.212Z,0.36
2022-12-12T00:35:36.387Z,0.36
2022-12-12T00:38:06.106Z,0.26
2022-12-12T00:40:34.440Z,0.21
2022-12-12T00:43:02.909Z,0.11
2022-12-12T00:45:31.113Z,0.04
2022-12-12T00:47:59.468Z,0.03
2022-12-12T00:50:27.808Z,0.20
2022-12-12T00:52:56.700Z,0.21
2022-12-12T00:55:26.976Z,0.20
2022-12-12T00:57:55.253Z,0.16
2022-12-12T01:00:23.883Z,0.01
2022-12-12T01:02:52.222Z,0.01
2022-12-12T01:05:20.491Z,-0.02
2022-12-12T01:07:49.038Z,0.02
2022-12-12T01:10:17.394Z,-0.04
2022-12-12T01:12:47.115Z,-0.07
2022-12-12T01:15:15.639Z,-0.06
2022-12-12T01:17:43.968Z,-0.10
2022-12-12T01:20:16.539Z,-0.06
2022-12-12T01:22:45.076Z,0.01
2022-12-12T01:25:14.275Z,0.04
2022-12-12T01:27:42.763Z,0.12
2022-12-12T01:30:14.417Z,0.11
2022-12-12T01:32:42.963Z,0.12
2022-12-12T01:35:11.658Z,0.06
2022-12-12T01:37:41.444Z,0.20
2022-12-12T01:40:12.524Z,0.24
2022-12-12T01:42:40.959Z,0.19
2022-12-12T01:45:10.160Z,0.18
2022-12-12T01:47:39.823Z,0.14
2022-12-12T01:50:10.152Z,0.09
2022-12-12T01:52:41.743Z,0.06
2022-12-12T01:55:12.312Z,0.06
2022-12-12T01:57:43.673Z,0.14
2022-12-12T02:00:12.457Z,0.13
2022-12-12T02:02:43.987Z,0.14
2022-12-12T02:05:19.011Z,0.20
2022-12-12T02:07:51.009Z,0.30
2022-12-12T02:10:22.444Z,0.32
2022-12-12T02:12:51.273Z,0.27
2022-12-12T02:15:27.895Z,0.12
2022-12-12T02:18:06.695Z,0.09
2022-12-12T02:20:52.354Z,0.03
2022-12-12T02:23:39.501Z,0.04
2022-12-12T02:26:25.825Z,0.11
2022-12-12T02:29:11.415Z,0.15
2022-12-12T02:31:44.011Z,0.07
2022-12-12T02:34:17.218Z,0.09
2022-12-12T02:36:49.749Z,0.04
2022-12-12T02:39:21.062Z,0.16
2022-12-12T02:41:55.797Z,0.18
2022-12-12T02:44:29.203Z,0.19
2022-12-12T02:47:02.499Z,0.09
2022-12-12T02:49:36.011Z,0.01
2022-12-12T02:52:09.013Z,-0.01
2022-12-12T02:54:37.459Z,-0.06
2022-12-12T02:57:14.381Z,0.00
2022-12-12T02:59:43.659Z,0.00
2022-12-12T03:02:30.427Z,0.05
2022-12-12T03:05:29.519Z,0.13
2022-12-12T03:08:05.308Z,0.07
2022-12-12T03:10:38.704Z,0.03
2022-12-12T03:13:12.970Z,-0.05
2022-12-12T03:15:47.697Z,-0.07
2022-12-12T03:18:22.820Z,0.00
2022-12-12T03:20:56.420Z,0.01
2022-12-12T03:23:25.986Z,0.12
2022-12-12T03:25:59.335Z,0.06
2022-12-12T03:28:31.440Z,0.06
2022-12-12T03:31:03.020Z,0.18
2022-12-12T03:33:34.974Z,0.07
2022-12-12T03:36:08.765Z,-0.01
2022-12-12T03:38:38.730Z,0.01
2022-12-12T03:41:09.972Z,-0.05
2022-12-12T03:43:41.253Z,-0.07
2022-12-12T03:46:14.262Z,0.05
2022-12-12T03:48:45.206Z,0.00
2022-12-12T03:51:17.322Z,-0.02
2022-12-12T03:53:48.190Z,-0.08
2022-12-12T03:56:19.978Z,-0.06
2022-12-12T03:59:08.397Z,-0.15
2022-12-12T04:01:40.483Z,-0.18
2022-12-12T04:04:10.735Z,-0.26
2022-12-12T04:06:43.738Z,-0.26
2022-12-12T04:09:31.449Z,-0.24
2022-12-12T04:12:21.834Z,-0.17
2022-12-12T04:15:01.618Z,-0.20
2022-12-12T04:17:33.821Z,-0.22
2022-12-12T04:20:23.851Z,-0.21
2022-12-12T04:23:18.828Z,-0.18
2022-12-12T04:26:15.502Z,-0.18
2022-12-12T04:28:46.722Z,-0.12
2022-12-12T04:31:16.500Z,-0.15
2022-12-12T04:33:47.704Z,-0.16
2022-12-12T04:36:18.577Z,-0.20
2022-12-12T04:38:49.158Z,-0.18
2022-12-12T04:41:18.266Z,-0.18
2022-12-12T04:43:49.037Z,-0.13
2022-12-12T04:46:19.872Z,-0.13
2022-12-12T04:48:52.986Z,-0.19
2022-12-12T04:51:25.685Z,-0.30
2022-12-12T04:54:00.807Z,-0.39
2022-12-12T04:56:30.797Z,-0.52
2022-12-12T04:58:59.580Z,-0.63
2022-12-12T05:01:33.512Z,-0.66
2022-12-12T05:04:02.871Z,-0.62
2022-12-12T05:06:34.354Z,-0.71
2022-12-12T05:09:04.447Z,-0.77
2022-12-12T05:11:34.209Z,-0.86
2022-12-12T05:14:02.535Z,-0.87
2022-12-12T05:16:32.879Z,-0.83
2022-12-12T05:19:01.696Z,-0.88
2022-12-12T05:21:30.140Z,-0.86
2022-12-12T05:23:58.447Z,-0.85
2022-12-12T05:26:28.926Z,-0.82
2022-12-12T05:29:01.119Z,-0.68
2022-12-12T05:31:33.822Z,-0.61
2022-12-12T05:34:02.181Z,-0.58
2022-12-12T05:36:30.539Z,-0.48
2022-12-12T05:38:59.032Z,-0.46
2022-12-12T05:41:28.704Z,-0.46
2022-12-12T05:43:57.126Z,-0.42
2022-12-12T05:46:25.623Z,-0.45
2022-12-12T05:48:53.882Z,-0.43
2022-12-12T05:51:22.462Z,-0.40
2022-12-12T05:53:50.738Z,-0.44
2022-12-12T05:56:19.642Z,-0.50
2022-12-12T05:58:49.268Z,-0.54
2022-12-12T06:01:17.574Z,-0.53
2022-12-12T06:03:45.921Z,-0.42
2022-12-12T06:06:14.163Z,-0.36
2022-12-12T06:08:43.260Z,-0.39
2022-12-12T06:11:11.758Z,-0.41
2022-12-12T06:13:40.280Z,-0.38
2022-12-12T06:16:11.317Z,-0.29
2022-12-12T06:18:39.897Z,-0.24
2022-12-12T06:21:09.691Z,-0.21
2022-12-12T06:23:38.720Z,-0.18
2022-12-12T06:26:07.892Z,-0.11
2022-12-12T06:28:36.403Z,-0.07
2022-12-12T06:31:11.101Z,-0.02
2022-12-12T06:33:42.197Z,0.08
2022-12-12T06:36:14.029Z,0.07
2022-12-12T06:38:42.723Z,0.07
2022-12-12T06:41:12.622Z,0.14
2022-12-12T06:43:41.785Z,0.12
2022-12-12T06:46:13.808Z,0.14
2022-12-12T06:48:44.278Z,0.16
2022-12-12T06:51:15.288Z,0.31
2022-12-12T06:53:43.615Z,0.26
2022-12-12T06:56:14.681Z,0.20
2022-12-12T06:58:43.677Z,0.16
2022-12-12T07:01:12.570Z,0.19
2022-12-12T07:03:41.175Z,0.14
2022-12-12T07:06:10.868Z,0.11
2022-12-12T07:08:40.136Z,0.08
2022-12-12T07:11:10.022Z,0.07
2022-12-12T07:13:38.440Z,-0.02
2022-12-12T07:16:07.595Z,-0.04
2022-12-12T07:18:36.488Z,-0.08
2022-12-12T07:21:05.452Z,-0.15
2022-12-12T07:23:35.397Z,-0.18
2022-12-12T07:26:04.502Z,-0.04
2022-12-12T07:28:35.398Z,-0.05
2022-12-12T07:31:06.375Z,-0.06
2022-12-12T07:33:43.034Z,-0.02
2022-12-12T07:36:12.829Z,0.03
2022-12-12T07:38:43.139Z,0.10
2022-12-12T07:41:12.433Z,0.03
2022-12-12T07:43:44.222Z,0.01
2022-12-12T07:46:15.175Z,-0.06
2022-12-12T07:48:43.681Z,0.09
2022-12-12T07:51:12.273Z,0.15
2022-12-12T07:53:41.890Z,0.18
2022-12-12T07:56:11.398Z,0.20
2022-12-12T07:58:40.265Z,0.18
2022-12-12T08:01:14.648Z,0.26
2022-12-12T08:03:44.011Z,0.36
2022-12-12T08:06:13.443Z,0.44
2022-12-12T08:08:43.599Z,0.55
2022-12-12T08:11:12.827Z,0.61
2022-12-12T08:13:41.759Z,0.71
2022-12-12T08:16:13.908Z,0.83
2022-12-12T08:18:42.444Z,0.77
2022-12-12T08:21:11.787Z,0.80
2022-12-12T08:23:40.269Z,0.65
2022-12-12T08:26:11.144Z,0.56
2022-12-12T08:28:41.293Z,0.39
2022-12-12T08:31:10.465Z,0.38
2022-12-12T08:33:39.084Z,0.44
2022-12-12T08:36:14.673Z,0.49
2022-12-12T08:38:43.299Z,0.57
2022-12-12T08:41:13.499Z,0.68
2022-12-12T08:43:42.776Z,0.76
2022-12-12T08:46:17.909Z,0.86
2022-12-12T08:48:47.138Z,1.00
2022-12-12T08:51:15.550Z,1.15
2022-12-12T08:53:44.701Z,1.35
2022-12-12T08:56:14.797Z,1.50
2022-12-12T08:58:43.510Z,1.74
2022-12-12T09:01:13.546Z,2.03
2022-12-12T09:03:42.084Z,2.18
2022-12-12T09:06:12.592Z,2.48
2022-12-12T09:08:42.369Z,2.70
2022-12-12T09:11:11.260Z,2.65
2022-12-12T09:13:40.996Z,3.22
2022-12-12T09:16:09.937Z,3.20
2022-12-12T09:18:42.083Z,3.14
2022-12-12T09:21:28.475Z,3.10
2022-12-12T09:23:56.851Z,3.31
2022-12-12T09:26:26.581Z,3.47
2022-12-12T09:28:56.318Z,3.53
2022-12-12T09:31:26.853Z,3.45
2022-12-12T09:33:55.253Z,3.21
2022-12-12T09:36:23.590Z,2.94
2022-12-12T09:38:51.946Z,2.87
2022-12-12T09:41:21.533Z,2.55
2022-12-12T09:43:54.320Z,2.44
2022-12-12T09:46:27.848Z,2.18
2022-12-12T09:48:58.126Z,1.85
2022-12-12T09:51:26.768Z,1.82
2022-12-12T09:53:55.629Z,1.79
2022-12-12T09:56:27.170Z,1.74
2022-12-12T09:59:00.324Z,1.64
2022-12-12T10:01:32.746Z,1.40
2022-12-12T10:04:06.527Z,1.39
2022-12-12T10:06:38.429Z,1.39
2022-12-12T10:09:11.950Z,1.41
2022-12-12T10:11:55.652Z,1.54
2022-12-12T10:14:28.979Z,1.41
2022-12-12T10:16:59.516Z,1.38
2022-12-12T10:19:30.048Z,1.34
2022-12-12T10:22:03.205Z,1.44
2022-12-12T10:24:34.657Z,1.59
2022-12-12T10:27:09.732Z,1.56
2022-12-12T10:29:41.704Z,1.46
2022-12-12T10:32:17.656Z,1.67
2022-12-12T10:34:55.762Z,1.81
2022-12-12T10:37:35.117Z,2.13
2022-12-12T10:40:11.292Z,2.27
2022-12-12T10:42:42.867Z,3.16
2022-12-12T10:45:30.966Z,4.22
2022-12-12T10:48:02.493Z,4.93
2022-12-12T10:50:38.355Z,5.51
2022-12-12T10:53:12.009Z,6.92
2022-12-12T10:55:46.818Z,7.66
2022-12-12T10:58:17.231Z,8.22
2022-12-12T11:00:48.105Z,8.03
2022-12-12T11:03:28.694Z,9.86
2022-12-12T11:05:57.802Z,11.53
2022-12-12T11:08:30.238Z,11.49
2022-12-12T11:11:04.545Z,10.69
2022-12-12T11:13:39.361Z,12.25
2022-12-12T11:16:13.247Z,11.64
2022-12-12T11:18:44.721Z,12.11
2022-12-12T11:21:14.626Z,13.58
2022-12-12T11:23:49.598Z,15.06
2022-12-12T11:26:19.760Z,15.85
2022-12-12T11:28:54.821Z,15.91
2022-12-12T11:31:25.403Z,15.58
2022-12-12T11:33:57.090Z,16.53
2022-12-12T11:36:30.075Z,16.35
2022-12-12T11:38:59.549Z,15.55
2022-12-12T11:41:28.053Z,12.89
2022-12-12T11:44:01.735Z,14.40
2022-12-12T11:46:31.201Z,14.93
2022-12-12T11:49:02.906Z,15.22
2022-12-12T11:51:33.094Z,14.97
2022-12-12T11:54:02.119Z,15.05
2022-12-12T11:56:39.622Z,15.31
2022-12-12T11:59:28.904Z,15.44
2022-12-12T12:02:00.352Z,15.67
2022-12-12T12:04:49.576Z,16.07
2022-12-12T12:07:36.243Z,16.66
2022-12-12T12:10:09.315Z,16.07
2022-12-12T12:12:42.523Z,13.32
2022-12-12T12:15:25.726Z,12.70
2022-12-12T12:18:02.526Z,10.70
2022-12-12T12:20:39.789Z,8.25
2022-12-12T12:23:15.831Z,6.99
2022-12-12T12:25:50.633Z,6.71
2022-12-12T12:28:35.680Z,6.54
2022-12-12T12:31:07.844Z,6.14
2022-12-12T12:33:45.044Z,5.83
2022-12-12T12:36:21.452Z,5.61
2022-12-12T12:38:56.296Z,5.48
2022-12-12T12:41:35.167Z,4.86
2022-12-12T12:44:17.189Z,4.78
2022-12-12T12:46:49.577Z,4.70
2022-12-12T12:49:22.128Z,4.53
2022-12-12T12:51:54.827Z,4.37
2022-12-12T12:54:25.940Z,4.02
2022-12-12T12:56:58.515Z,3.63
2022-12-12T12:59:31.119Z,3.44
2022-12-12T13:02:02.409Z,3.42
2022-12-12T13:04:32.802Z,3.34
2022-12-12T13:07:05.390Z,3.28
2022-12-12T13:09:39.367Z,3.20
2022-12-12T13:12:13.158Z,3.10
2022-12-12T13:14:45.510Z,3.01
2022-12-12T13:17:17.430Z,3.01
2022-12-12T13:19:47.986Z,3.23
2022-12-12T13:22:20.481Z,3.44
2022-12-12T13:24:58.084Z,3.66
2022-12-12T13:27:30.955Z,3.82
2022-12-12T13:30:02.221Z,3.89
2022-12-12T13:33:03.784Z,3.54
2022-12-12T13:35:34.247Z,3.52
2022-12-12T13:38:04.376Z,3.17
2022-12-12T13:40:34.865Z,2.94
2022-12-12T13:43:09.409Z,2.55
2022-12-12T13:45:41.293Z,2.42
2022-12-12T13:48:29.097Z,2.19
2022-12-12T13:51:16.530Z,2.08
2022-12-12T13:53:46.782Z,2.07
2022-12-12T13:56:35.112Z,2.02
2022-12-12T13:59:03.961Z,2.31
2022-12-12T14:01:37.027Z,3.87
2022-12-12T14:04:05.883Z,5.06
2022-12-12T14:06:34.583Z,4.65
2022-12-12T14:09:04.450Z,3.88
2022-12-12T14:11:34.408Z,3.36
2022-12-12T14:14:07.236Z,2.99
2022-12-12T14:16:36.475Z,2.64
2022-12-12T14:19:09.514Z,2.33
2022-12-12T14:21:39.734Z,2.07
2022-12-12T14:24:26.543Z,1.85
2022-12-12T14:26:56.410Z,1.72
2022-12-12T14:29:26.348Z,1.60
2022-12-12T14:31:58.363Z,1.45
2022-12-12T14:34:30.637Z,1.40
2022-12-12T14:37:16.673Z,1.25
2022-12-12T14:39:54.898Z,1.20
2022-12-12T14:43:15.663Z,1.14
2022-12-12T14:45:24.583Z,1.07
2022-12-12T14:48:08.225Z,1.27
2022-12-12T14:50:37.422Z,1.07
2022-12-12T14:53:14.991Z,1.02
2022-12-12T14:55:50.926Z,0.99
2022-12-12T14:58:22.654Z,0.97
2022-12-12T15:00:53.577Z,0.85
2022-12-12T15:03:27.325Z,0.67
2022-12-12T15:06:14.432Z,0.49
2022-12-12T15:08:43.263Z,0.41
2022-12-12T15:11:14.167Z,0.30
2022-12-12T15:13:51.445Z,0.10
2022-12-12T15:16:21.111Z,-0.05
2022-12-12T15:18:49.757Z,-0.19
2022-12-12T15:21:18.408Z,-0.23
2022-12-12T15:23:46.743Z,-0.35
2022-12-12T15:26:17.821Z,-0.48
2022-12-12T15:28:46.810Z,-0.57
2022-12-12T15:31:19.161Z,-0.66
2022-12-12T15:33:47.983Z,-0.78
2022-12-12T15:36:19.051Z,-0.88
2022-12-12T15:39:02.479Z,-0.99
2022-12-12T15:41:33.771Z,-1.07
2022-12-12T15:44:04.232Z,-1.04
2022-12-12T15:46:35.193Z,-1.02
2022-12-12T15:49:03.598Z,-0.90
2022-12-12T15:51:33.044Z,-0.82
2022-12-12T15:54:06.747Z,-0.83
2022-12-12T15:56:35.189Z,-0.95
2022-12-12T15:59:15.789Z,-1.06
2022-12-12T16:01:45.536Z,-1.34
2022-12-12T16:04:24.013Z,-1.45
2022-12-12T16:06:52.776Z,-1.53
2022-12-12T16:09:22.476Z,-1.54
2022-12-12T16:11:52.088Z,-1.64
2022-12-12T16:14:25.088Z,-1.70
2022-12-12T16:16:57.004Z,-1.81
2022-12-12T16:19:36.728Z,-1.79
2022-12-12T16:22:06.411Z,-1.84
2022-12-12T16:24:45.074Z,-1.87
2022-12-12T16:27:13.718Z,-1.95
2022-12-12T16:29:45.372Z,-1.95
2022-12-12T16:32:16.539Z,-2.03
2022-12-12T16:34:45.178Z,-2.10
2022-12-12T16:37:15.154Z,-2.13
2022-12-12T16:39:43.924Z,-2.18
2022-12-12T16:42:13.814Z,-2.18
2022-12-12T16:44:42.277Z,-2.11
2022-12-12T16:47:15.437Z,-2.19
2022-12-12T16:49:44.379Z,-2.29
2022-12-12T16:52:13.603Z,-2.31
2022-12-12T16:54:43.026Z,-2.16
2022-12-12T16:57:14.266Z,-2.05
2022-12-12T16:59:43.097Z,-2.08
2022-12-12T17:02:17.845Z,-2.10
2022-12-12T17:04:48.213Z,-2.17
2022-12-12T17:07:16.646Z,-2.14
2022-12-12T17:09:45.122Z,-2.17
2022-12-12T17:12:15.264Z,-2.27
2022-12-12T17:14:44.007Z,-2.30
2022-12-12T17:17:12.581Z,-2.43
2022-12-12T17:19:41.015Z,-2.48
2022-12-12T17:22:10.770Z,-2.53
2022-12-12T17:24:39.232Z,-2.51
2022-12-12T17:27:07.674Z,-2.57
2022-12-12T17:29:36.163Z,-2.57
2022-12-12T17:32:04.812Z,-2.63
2022-12-12T17:34:33.173Z,-2.57
2022-12-12T17:37:01.613Z,-2.63
2022-12-12T17:39:31.260Z,-2.64
2022-12-12T17:41:59.759Z,-2.74
2022-12-12T17:44:28.246Z,-2.63
2022-12-12T17:46:56.628Z,-2.67
2022-12-12T17:49:25.113Z,-2.75
2022-12-12T17:51:53.722Z,-2.73
2022-12-12T17:54:22.414Z,-2.64
2022-12-12T17:56:52.080Z,-2.61
2022-12-12T17:59:20.750Z,-2.59
2022-12-12T18:01:53.842Z,-2.63
2022-12-12T18:04:27.636Z,-2.66
2022-12-12T18:06:56.856Z,-2.73
2022-12-12T18:09:25.955Z,-2.72
2022-12-12T18:11:55.629Z,-2.63
2022-12-12T18:14:23.928Z,-2.76
2022-12-12T18:16:53.396Z,-2.82
2022-12-12T18:19:22.344Z,-2.90
2022-12-12T18:22:00.863Z,-2.96
2022-12-12T18:24:30.435Z,-2.84
2022-12-12T18:27:01.381Z,-2.89
2022-12-12T18:29:30.236Z,-2.92
2022-12-12T18:31:58.886Z,-3.01
2022-12-12T18:34:27.355Z,-3.07
2022-12-12T18:36:55.816Z,-2.89
2022-12-12T18:39:24.181Z,-2.97
2022-12-12T18:41:53.424Z,-2.99
2022-12-12T18:44:23.442Z,-3.09
2022-12-12T18:46:52.172Z,-3.10
2022-12-12T18:49:21.027Z,-3.13
2022-12-12T18:51:50.079Z,-3.21
2022-12-12T18:54:18.669Z,-3.13
2022-12-12T18:56:47.761Z,-3.24
2022-12-12T18:59:16.761Z,-3.29
2022-12-12T19:01:48.055Z,-3.22
2022-12-12T19:04:22.949Z,-3.17
2022-12-12T19:06:54.009Z,-3.14
2022-12-12T19:09:22.857Z,-3.28
2022-12-12T19:12:01.652Z,-3.37
2022-12-12T19:15:15.326Z,-3.46
2022-12-12T19:17:26.184Z,-3.48
2022-12-12T19:19:56.675Z,-3.47
2022-12-12T19:25:19.138Z,-3.44
2022-12-12T19:27:47.993Z,-3.45
2022-12-12T19:30:19.057Z,-3.48
2022-12-12T19:32:50.122Z,-3.37
2022-12-12T19:35:26.302Z,-3.49
2022-12-12T19:37:54.604Z,-3.47
2022-12-12T19:40:22.952Z,-3.48
2022-12-12T19:42:51.793Z,-3.53
2022-12-12T19:45:20.453Z,-3.52
2022-12-12T19:47:51.741Z,-3.55
2022-12-12T19:50:20.385Z,-3.60
2022-12-12T19:52:50.269Z,-3.50
2022-12-12T19:55:18.885Z,-3.55
2022-12-12T19:57:47.463Z,-3.47
2022-12-12T20:00:20.033Z,-3.54
2022-12-12T20:02:54.540Z,-3.53
2022-12-12T20:05:24.162Z,-3.55
2022-12-12T20:07:56.328Z,-3.55
2022-12-12T20:10:26.342Z,-3.42
2022-12-12T20:12:58.746Z,-3.56
2022-12-12T20:15:27.610Z,-3.74
2022-12-12T20:18:00.691Z,-3.77
2022-12-12T20:20:29.703Z,-3.97
2022-12-12T20:22:58.544Z,-3.98
2022-12-12T20:25:27.078Z,-3.84
2022-12-12T20:27:57.758Z,-3.97
2022-12-12T20:30:29.317Z,-3.79
2022-12-12T20:32:59.853Z,-3.89
2022-12-12T20:35:28.293Z,-3.91
2022-12-12T20:37:59.808Z,-3.94
2022-12-12T20:40:31.495Z,-3.99
2022-12-12T20:43:03.499Z,-4.02
2022-12-12T20:45:32.693Z,-4.11
2022-12-12T20:48:07.370Z,-4.12
2022-12-12T20:50:36.967Z,-4.11
2022-12-12T20:53:05.529Z,-4.13
2022-12-12T20:55:35.635Z,-4.18
2022-12-12T20:58:04.420Z,-4.04
2022-12-12T21:00:35.579Z,-3.89
2022-12-12T21:03:05.861Z,-3.85
2022-12-12T21:05:34.243Z,-3.90
2022-12-12T21:08:02.968Z,-3.92
2022-12-12T21:10:32.325Z,-4.15
2022-12-12T21:13:00.756Z,-4.26
2022-12-12T21:15:29.565Z,-4.31
2022-12-12T21:17:58.036Z,-4.41
2022-12-12T21:20:27.767Z,-4.41
2022-12-12T21:22:57.305Z,-4.38
2022-12-12T21:25:26.308Z,-4.37
2022-12-12T21:27:54.892Z,-4.43
2022-12-12T21:30:23.275Z,-4.46
2022-12-12T21:32:52.203Z,-4.38
2022-12-12T21:35:20.759Z,-4.38
2022-12-12T21:37:50.690Z,-4.43
2022-12-12T21:40:21.279Z,-4.53
2022-12-12T21:42:49.798Z,-4.44
2022-12-12T21:45:18.603Z,-4.49
2022-12-12T21:47:47.212Z,-4.47
2022-12-12T21:50:16.488Z,-4.37
2022-12-12T21:53:05.773Z,-4.47
2022-12-12T21:55:41.056Z,-4.55
2022-12-12T21:58:10.157Z,-4.49
2022-12-12T22:00:39.948Z,-4.61
2022-12-12T22:03:08.584Z,-4.64
2022-12-12T22:05:37.015Z,-4.67
2022-12-12T22:08:05.414Z,-4.70
2022-12-12T22:10:37.392Z,-4.68
2022-12-12T22:13:07.118Z,-4.65
2022-12-12T22:15:35.433Z,-4.61
2022-12-12T22:18:03.670Z,-4.62
2022-12-12T22:20:32.045Z,-4.69
2022-12-12T22:23:00.281Z,-4.70
2022-12-12T22:25:28.726Z,-4.72
2022-12-12T22:27:57.025Z,-4.76
2022-12-12T22:30:26.601Z,-4.80
2022-12-12T22:32:55.039Z,-4.84
2022-12-12T22:35:25.627Z,-4.92
2022-12-12T22:37:55.165Z,-4.95
2022-12-12T22:40:23.403Z,-4.97
2022-12-12T22:42:51.658Z,-4.97
2022-12-12T22:45:19.869Z,-4.78
2022-12-12T22:47:51.183Z,-4.78
2022-12-12T22:50:19.671Z,-4.77
2022-12-12T22:52:47.899Z,-4.84
2022-12-12T22:55:16.467Z,-4.83
2022-12-12T22:57:46.542Z,-4.78
2022-12-12T23:00:15.314Z,-4.87
2022-12-12T23:02:43.717Z,-4.92
2022-12-12T23:05:13.971Z,-4.99
2022-12-12T23:07:42.652Z,-4.95
2022-12-12T23:10:10.950Z,-4.92
2022-12-12T23:12:40.219Z,-4.93
2022-12-12T23:15:09.393Z,-5.01
2022-12-12T23:17:37.824Z,-5.03
2022-12-12T23:20:07.621Z,-4.96
2022-12-12T23:22:37.242Z,-5.02
2022-12-12T23:25:05.930Z,-5.04
2022-12-12T23:27:34.262Z,-5.05
2022-12-12T23:30:02.744Z,-4.96
2022-12-12T23:32:31.201Z,-4.97
2022-12-12T23:34:59.924Z,-4.96
2022-12-12T23:37:31.252Z,-5.01
2022-12-12T23:40:02.319Z,-5.11
2022-12-12T23:42:30.599Z,-5.09
2022-12-12T23:45:01.793Z,-5.06
2022-12-12T23:47:30.331Z,-5.11
2022-12-12T23:49:58.730Z,-5.07
2022-12-12T23:52:26.994Z,-5.04
2022-12-12T23:54:55.201Z,-5.13
2022-12-12T23:57:24.728Z,-5.10
2022-12-12T23:59:53.112Z,-5.04
